sensor_id;sensor_type;location;lat;lon;timestamp;temperature;humidity
52159;DHT22;38145;53.182;6.284;2022-11-12T00:01:51;7.30;99.90
52159;DHT22;38145;53.182;6.284;2022-11-12T00:04:17;7.20;99.90
52159;DHT22;38145;53.182;6.284;2022-11-12T00:06:43;7.10;99.90
52159;DHT22;38145;53.182;6.284;2022-11-12T00:09:09;7.30;99.90
52159;DHT22;38145;53.182;6.284;2022-11-12T00:11:35;7.20;99.90
52159;DHT22;38145;53.182;6.284;2022-11-12T00:14:01;7.20;99.90
52159;DHT22;38145;53.182;6.284;2022-11-12T00:16:27;7.10;99.90
52159;DHT22;38145;53.182;6.284;2022-11-12T00:18:53;7.10;99.90
52159;DHT22;38145;53.182;6.284;2022-11-12T00:21:19;7.20;99.90
52159;DHT22;38145;53.182;6.284;2022-11-12T00:23:45;7.00;99.90
52159;DHT22;38145;53.182;6.284;2022-11-12T00:26:11;7.00;99.90
52159;DHT22;38145;53.182;6.284;2022-11-12T00:28:38;6.90;99.90
52159;DHT22;38145;53.182;6.284;2022-11-12T00:31:07;6.90;99.90
52159;DHT22;38145;53.182;6.284;2022-11-12T00:33:34;7.00;99.90
52159;DHT22;38145;53.182;6.284;2022-11-12T00:35:59;7.00;99.90
52159;DHT22;38145;53.182;6.284;2022-11-12T00:38:25;6.90;99.90
52159;DHT22;38145;53.182;6.284;2022-11-12T00:40:52;6.90;99.90
52159;DHT22;38145;53.182;6.284;2022-11-12T00:43:18;6.70;99.90
52159;DHT22;38145;53.182;6.284;2022-11-12T00:45:44;6.90;99.90
52159;DHT22;38145;53.182;6.284;2022-11-12T00:48:10;6.90;99.90
52159;DHT22;38145;53.182;6.284;2022-11-12T00:50:36;6.80;99.90
52159;DHT22;38145;53.182;6.284;2022-11-12T00:53:02;6.60;99.90
52159;DHT22;38145;53.182;6.284;2022-11-12T00:55:28;6.80;99.90
52159;DHT22;38145;53.182;6.284;2022-11-12T00:57:56;6.70;99.90
52159;DHT22;38145;53.182;6.284;2022-11-12T01:00:22;6.70;99.90
52159;DHT22;38145;53.182;6.284;2022-11-12T01:02:48;6.60;99.90
52159;DHT22;38145;53.182;6.284;2022-11-12T01:05:14;6.70;99.90
52159;DHT22;38145;53.182;6.284;2022-11-12T01:07:40;6.60;99.90
52159;DHT22;38145;53.182;6.284;2022-11-12T01:10:07;6.70;99.90
52159;DHT22;38145;53.182;6.284;2022-11-12T01:12:34;6.60;99.90
52159;DHT22;38145;53.182;6.284;2022-11-12T01:15:00;6.70;99.90
52159;DHT22;38145;53.182;6.284;2022-11-12T01:17:26;6.70;99.90
52159;DHT22;38145;53.182;6.284;2022-11-12T01:19:53;6.60;99.90
52159;DHT22;38145;53.182;6.284;2022-11-12T01:22:19;6.60;99.90
52159;DHT22;38145;53.182;6.284;2022-11-12T01:24:45;6.60;99.90
52159;DHT22;38145;53.182;6.284;2022-11-12T01:27:11;6.60;99.90
52159;DHT22;38145;53.182;6.284;2022-11-12T01:29:37;6.60;99.90
52159;DHT22;38145;53.182;6.284;2022-11-12T01:32:03;6.60;99.90
52159;DHT22;38145;53.182;6.284;2022-11-12T01:34:29;6.60;99.90
52159;DHT22;38145;53.182;6.284;2022-11-12T01:36:55;6.60;99.90
52159;DHT22;38145;53.182;6.284;2022-11-12T01:39:21;6.50;99.90
52159;DHT22;38145;53.182;6.284;2022-11-12T01:41:47;6.40;99.90
52159;DHT22;38145;53.182;6.284;2022-11-12T01:44:15;6.40;99.90
52159;DHT22;38145;53.182;6.284;2022-11-12T01:46:45;6.50;99.90
52159;DHT22;38145;53.182;6.284;2022-11-12T01:49:14;6.40;99.90
52159;DHT22;38145;53.182;6.284;2022-11-12T01:51:43;6.60;99.90
52159;DHT22;38145;53.182;6.284;2022-11-12T01:54:10;6.60;99.90
52159;DHT22;38145;53.182;6.284;2022-11-12T01:56:38;6.30;99.90
52159;DHT22;38145;53.182;6.284;2022-11-12T01:59:06;6.40;99.90
52159;DHT22;38145;53.182;6.284;2022-11-12T02:01:35;6.30;99.90
52159;DHT22;38145;53.182;6.284;2022-11-12T02:04:02;6.30;99.90
52159;DHT22;38145;53.182;6.284;2022-11-12T02:06:28;6.50;99.90
52159;DHT22;38145;53.182;6.284;2022-11-12T02:08:55;6.60;99.90
52159;DHT22;38145;53.182;6.284;2022-11-12T02:11:21;6.40;99.90
52159;DHT22;38145;53.182;6.284;2022-11-12T02:13:48;6.30;99.90
52159;DHT22;38145;53.182;6.284;2022-11-12T02:16:31;6.30;99.90
52159;DHT22;38145;53.182;6.284;2022-11-12T02:18:58;6.30;99.90
52159;DHT22;38145;53.182;6.284;2022-11-12T02:21:24;6.40;99.90
52159;DHT22;38145;53.182;6.284;2022-11-12T02:23:57;6.30;99.90
52159;DHT22;38145;53.182;6.284;2022-11-12T02:26:24;6.10;99.90
52159;DHT22;38145;53.182;6.284;2022-11-12T02:28:50;6.20;99.90
52159;DHT22;38145;53.182;6.284;2022-11-12T02:31:16;6.00;99.90
52159;DHT22;38145;53.182;6.284;2022-11-12T02:33:42;6.20;99.90
52159;DHT22;38145;53.182;6.284;2022-11-12T02:36:08;6.10;99.90
52159;DHT22;38145;53.182;6.284;2022-11-12T02:38:35;5.90;99.90
52159;DHT22;38145;53.182;6.284;2022-11-12T02:41:01;6.20;99.90
52159;DHT22;38145;53.182;6.284;2022-11-12T02:43:27;6.20;99.90
52159;DHT22;38145;53.182;6.284;2022-11-12T02:45:53;6.20;99.90
52159;DHT22;38145;53.182;6.284;2022-11-12T02:48:19;6.00;99.90
52159;DHT22;38145;53.182;6.284;2022-11-12T02:50:46;6.20;99.90
52159;DHT22;38145;53.182;6.284;2022-11-12T02:53:12;6.10;99.90
52159;DHT22;38145;53.182;6.284;2022-11-12T02:55:38;6.10;99.90
52159;DHT22;38145;53.182;6.284;2022-11-12T02:58:04;6.20;99.90
52159;DHT22;38145;53.182;6.284;2022-11-12T03:00:30;5.90;99.90
52159;DHT22;38145;53.182;6.284;2022-11-12T03:02:57;6.10;99.90
52159;DHT22;38145;53.182;6.284;2022-11-12T03:05:25;6.10;99.90
52159;DHT22;38145;53.182;6.284;2022-11-12T03:07:56;5.90;99.90
52159;DHT22;38145;53.182;6.284;2022-11-12T03:10:23;6.10;99.90
52159;DHT22;38145;53.182;6.284;2022-11-12T03:12:49;6.00;99.90
52159;DHT22;38145;53.182;6.284;2022-11-12T03:15:15;5.90;99.90
52159;DHT22;38145;53.182;6.284;2022-11-12T03:17:42;5.90;99.90
52159;DHT22;38145;53.182;6.284;2022-11-12T03:20:09;5.90;99.90
52159;DHT22;38145;53.182;6.284;2022-11-12T03:22:36;5.70;99.90
52159;DHT22;38145;53.182;6.284;2022-11-12T03:25:03;5.90;99.90
52159;DHT22;38145;53.182;6.284;2022-11-12T03:27:29;5.80;99.90
52159;DHT22;38145;53.182;6.284;2022-11-12T03:29:55;5.90;99.90
52159;DHT22;38145;53.182;6.284;2022-11-12T03:32:21;5.60;99.90
52159;DHT22;38145;53.182;6.284;2022-11-12T03:34:47;6.90;99.90
52159;DHT22;38145;53.182;6.284;2022-11-12T03:37:13;5.80;99.90
52159;DHT22;38145;53.182;6.284;2022-11-12T03:39:39;5.80;99.90
52159;DHT22;38145;53.182;6.284;2022-11-12T03:42:05;5.70;99.90
52159;DHT22;38145;53.182;6.284;2022-11-12T03:44:32;5.80;99.90
52159;DHT22;38145;53.182;6.284;2022-11-12T03:46:58;5.70;99.90
52159;DHT22;38145;53.182;6.284;2022-11-12T03:49:24;6.00;99.90
52159;DHT22;38145;53.182;6.284;2022-11-12T03:51:50;5.70;99.90
52159;DHT22;38145;53.182;6.284;2022-11-12T03:54:16;5.90;99.90
52159;DHT22;38145;53.182;6.284;2022-11-12T03:56:42;5.70;99.90
52159;DHT22;38145;53.182;6.284;2022-11-12T03:59:08;5.90;99.90
52159;DHT22;38145;53.182;6.284;2022-11-12T04:01:34;5.70;99.90
52159;DHT22;38145;53.182;6.284;2022-11-12T04:04:00;5.90;99.90
52159;DHT22;38145;53.182;6.284;2022-11-12T04:06:27;5.70;99.90
52159;DHT22;38145;53.182;6.284;2022-11-12T04:09:11;5.80;99.90
52159;DHT22;38145;53.182;6.284;2022-11-12T04:11:37;5.90;99.90
52159;DHT22;38145;53.182;6.284;2022-11-12T04:14:03;5.90;99.90
52159;DHT22;38145;53.182;6.284;2022-11-12T04:16:29;5.90;99.90
52159;DHT22;38145;53.182;6.284;2022-11-12T04:19:14;5.90;99.90
52159;DHT22;38145;53.182;6.284;2022-11-12T04:22:00;6.00;99.90
52159;DHT22;38145;53.182;6.284;2022-11-12T04:24:29;5.70;99.90
52159;DHT22;38145;53.182;6.284;2022-11-12T04:27:15;5.80;99.90
52159;DHT22;38145;53.182;6.284;2022-11-12T04:29:41;6.00;99.90
52159;DHT22;38145;53.182;6.284;2022-11-12T04:32:26;5.80;99.90
52159;DHT22;38145;53.182;6.284;2022-11-12T04:34:52;6.00;99.90
52159;DHT22;38145;53.182;6.284;2022-11-12T04:37:18;5.90;99.90
52159;DHT22;38145;53.182;6.284;2022-11-12T04:39:45;6.10;99.90
52159;DHT22;38145;53.182;6.284;2022-11-12T04:42:11;5.80;99.90
52159;DHT22;38145;53.182;6.284;2022-11-12T04:44:55;5.90;99.90
52159;DHT22;38145;53.182;6.284;2022-11-12T04:47:21;5.90;99.90
52159;DHT22;38145;53.182;6.284;2022-11-12T04:49:47;5.90;99.90
52159;DHT22;38145;53.182;6.284;2022-11-12T04:52:14;6.00;99.90
52159;DHT22;38145;53.182;6.284;2022-11-12T04:54:40;6.20;99.90
52159;DHT22;38145;53.182;6.284;2022-11-12T04:57:06;6.10;99.90
52159;DHT22;38145;53.182;6.284;2022-11-12T04:59:32;6.00;99.90
52159;DHT22;38145;53.182;6.284;2022-11-12T05:01:58;6.30;99.90
52159;DHT22;38145;53.182;6.284;2022-11-12T05:04:24;6.30;99.90
52159;DHT22;38145;53.182;6.284;2022-11-12T05:06:54;6.10;99.90
52159;DHT22;38145;53.182;6.284;2022-11-12T05:09:21;6.40;99.90
52159;DHT22;38145;53.182;6.284;2022-11-12T05:11:48;6.10;99.90
52159;DHT22;38145;53.182;6.284;2022-11-12T05:14:14;6.20;99.90
52159;DHT22;38145;53.182;6.284;2022-11-12T05:16:41;6.40;99.90
52159;DHT22;38145;53.182;6.284;2022-11-12T05:19:07;6.10;99.90
52159;DHT22;38145;53.182;6.284;2022-11-12T05:21:34;6.10;99.90
52159;DHT22;38145;53.182;6.284;2022-11-12T05:24:18;6.10;99.90
52159;DHT22;38145;53.182;6.284;2022-11-12T05:26:44;6.30;99.90
52159;DHT22;38145;53.182;6.284;2022-11-12T05:29:11;6.10;99.90
52159;DHT22;38145;53.182;6.284;2022-11-12T05:31:37;6.10;99.90
52159;DHT22;38145;53.182;6.284;2022-11-12T05:34:03;6.20;99.90
52159;DHT22;38145;53.182;6.284;2022-11-12T05:36:29;6.10;99.90
52159;DHT22;38145;53.182;6.284;2022-11-12T05:38:55;6.10;99.90
52159;DHT22;38145;53.182;6.284;2022-11-12T05:41:21;6.10;99.90
52159;DHT22;38145;53.182;6.284;2022-11-12T05:43:47;6.60;99.90
52159;DHT22;38145;53.182;6.284;2022-11-12T05:46:13;6.20;99.90
52159;DHT22;38145;53.182;6.284;2022-11-12T05:48:39;6.20;99.90
52159;DHT22;38145;53.182;6.284;2022-11-12T05:51:05;6.30;99.90
52159;DHT22;38145;53.182;6.284;2022-11-12T05:53:31;6.60;99.90
52159;DHT22;38145;53.182;6.284;2022-11-12T05:56:01;6.40;99.90
52159;DHT22;38145;53.182;6.284;2022-11-12T05:58:27;6.70;99.90
52159;DHT22;38145;53.182;6.284;2022-11-12T06:00:53;6.60;99.90
52159;DHT22;38145;53.182;6.284;2022-11-12T06:03:19;6.40;99.90
52159;DHT22;38145;53.182;6.284;2022-11-12T06:05:45;6.60;99.90
52159;DHT22;38145;53.182;6.284;2022-11-12T06:08:11;6.70;99.90
52159;DHT22;38145;53.182;6.284;2022-11-12T06:10:37;6.50;99.90
52159;DHT22;38145;53.182;6.284;2022-11-12T06:13:03;6.30;99.90
52159;DHT22;38145;53.182;6.284;2022-11-12T06:15:29;6.80;99.90
52159;DHT22;38145;53.182;6.284;2022-11-12T06:17:56;6.70;99.90
52159;DHT22;38145;53.182;6.284;2022-11-12T06:20:22;6.80;99.90
52159;DHT22;38145;53.182;6.284;2022-11-12T06:22:48;6.80;99.90
52159;DHT22;38145;53.182;6.284;2022-11-12T06:25:15;6.80;99.90
52159;DHT22;38145;53.182;6.284;2022-11-12T06:27:41;6.50;99.90
52159;DHT22;38145;53.182;6.284;2022-11-12T06:30:07;6.50;99.90
52159;DHT22;38145;53.182;6.284;2022-11-12T06:32:34;6.80;99.90
52159;DHT22;38145;53.182;6.284;2022-11-12T06:35:00;6.70;99.90
52159;DHT22;38145;53.182;6.284;2022-11-12T06:37:26;6.30;99.90
52159;DHT22;38145;53.182;6.284;2022-11-12T06:39:52;6.60;99.90
52159;DHT22;38145;53.182;6.284;2022-11-12T06:42:18;6.40;99.90
52159;DHT22;38145;53.182;6.284;2022-11-12T06:44:44;6.80;99.90
52159;DHT22;38145;53.182;6.284;2022-11-12T06:47:10;6.50;99.90
52159;DHT22;38145;53.182;6.284;2022-11-12T06:49:36;6.40;99.90
52159;DHT22;38145;53.182;6.284;2022-11-12T06:52:02;6.80;99.90
52159;DHT22;38145;53.182;6.284;2022-11-12T06:54:29;6.50;99.90
52159;DHT22;38145;53.182;6.284;2022-11-12T06:56:55;6.60;99.90
52159;DHT22;38145;53.182;6.284;2022-11-12T06:59:21;6.60;99.90
52159;DHT22;38145;53.182;6.284;2022-11-12T07:01:47;7.00;99.90
52159;DHT22;38145;53.182;6.284;2022-11-12T07:04:14;6.60;99.90
52159;DHT22;38145;53.182;6.284;2022-11-12T07:06:41;6.50;99.90
52159;DHT22;38145;53.182;6.284;2022-11-12T07:09:07;6.60;99.90
52159;DHT22;38145;53.182;6.284;2022-11-12T07:11:33;7.00;99.90
52159;DHT22;38145;53.182;6.284;2022-11-12T07:13:59;6.60;99.90
52159;DHT22;38145;53.182;6.284;2022-11-12T07:16:26;6.60;99.90
52159;DHT22;38145;53.182;6.284;2022-11-12T07:18:52;6.60;99.90
52159;DHT22;38145;53.182;6.284;2022-11-12T07:21:19;7.00;99.90
52159;DHT22;38145;53.182;6.284;2022-11-12T07:23:45;6.60;99.90
52159;DHT22;38145;53.182;6.284;2022-11-12T07:26:13;7.00;99.90
52159;DHT22;38145;53.182;6.284;2022-11-12T07:28:40;7.10;99.90
52159;DHT22;38145;53.182;6.284;2022-11-12T07:31:09;6.90;99.90
52159;DHT22;38145;53.182;6.284;2022-11-12T07:33:35;7.10;99.90
52159;DHT22;38145;53.182;6.284;2022-11-12T07:36:03;6.70;99.90
52159;DHT22;38145;53.182;6.284;2022-11-12T07:38:30;7.10;99.90
52159;DHT22;38145;53.182;6.284;2022-11-12T07:40:58;7.00;99.90
52159;DHT22;38145;53.182;6.284;2022-11-12T07:43:24;7.10;99.90
52159;DHT22;38145;53.182;6.284;2022-11-12T07:45:51;6.70;99.90
52159;DHT22;38145;53.182;6.284;2022-11-12T07:48:17;6.90;99.90
52159;DHT22;38145;53.182;6.284;2022-11-12T07:50:43;7.10;99.90
52159;DHT22;38145;53.182;6.284;2022-11-12T07:53:09;7.10;99.90
52159;DHT22;38145;53.182;6.284;2022-11-12T07:55:35;6.70;99.90
52159;DHT22;38145;53.182;6.284;2022-11-12T07:58:01;6.80;99.90
52159;DHT22;38145;53.182;6.284;2022-11-12T08:00:28;6.90;99.90
52159;DHT22;38145;53.182;6.284;2022-11-12T08:02:54;7.20;99.90
52159;DHT22;38145;53.182;6.284;2022-11-12T08:05:20;7.10;99.90
52159;DHT22;38145;53.182;6.284;2022-11-12T08:07:46;7.30;99.90
52159;DHT22;38145;53.182;6.284;2022-11-12T08:10:12;6.80;99.90
52159;DHT22;38145;53.182;6.284;2022-11-12T08:12:38;6.90;99.90
52159;DHT22;38145;53.182;6.284;2022-11-12T08:15:04;6.80;99.90
52159;DHT22;38145;53.182;6.284;2022-11-12T08:17:30;7.00;99.90
52159;DHT22;38145;53.182;6.284;2022-11-12T08:19:56;6.90;99.90
52159;DHT22;38145;53.182;6.284;2022-11-12T08:22:23;7.20;99.90
52159;DHT22;38145;53.182;6.284;2022-11-12T08:24:49;7.20;99.90
52159;DHT22;38145;53.182;6.284;2022-11-12T08:27:15;7.00;99.90
52159;DHT22;38145;53.182;6.284;2022-11-12T08:29:41;7.10;99.90
52159;DHT22;38145;53.182;6.284;2022-11-12T08:32:07;7.00;99.90
52159;DHT22;38145;53.182;6.284;2022-11-12T08:34:33;7.20;99.90
52159;DHT22;38145;53.182;6.284;2022-11-12T08:37:00;7.10;99.90
52159;DHT22;38145;53.182;6.284;2022-11-12T08:39:26;7.10;99.90
52159;DHT22;38145;53.182;6.284;2022-11-12T08:41:52;7.40;99.90
52159;DHT22;38145;53.182;6.284;2022-11-12T08:44:18;7.10;99.90
52159;DHT22;38145;53.182;6.284;2022-11-12T08:46:45;7.50;99.90
52159;DHT22;38145;53.182;6.284;2022-11-12T08:49:11;7.60;99.90
52159;DHT22;38145;53.182;6.284;2022-11-12T08:51:37;7.20;99.90
52159;DHT22;38145;53.182;6.284;2022-11-12T08:54:03;7.70;99.90
52159;DHT22;38145;53.182;6.284;2022-11-12T08:56:29;7.20;99.90
52159;DHT22;38145;53.182;6.284;2022-11-12T08:58:55;7.70;99.90
52159;DHT22;38145;53.182;6.284;2022-11-12T09:01:21;7.70;99.90
52159;DHT22;38145;53.182;6.284;2022-11-12T09:03:47;7.60;99.90
52159;DHT22;38145;53.182;6.284;2022-11-12T09:06:14;7.70;99.90
52159;DHT22;38145;53.182;6.284;2022-11-12T09:08:40;7.80;99.90
52159;DHT22;38145;53.182;6.284;2022-11-12T09:11:06;7.70;99.90
52159;DHT22;38145;53.182;6.284;2022-11-12T09:13:32;7.50;99.90
52159;DHT22;38145;53.182;6.284;2022-11-12T09:15:58;7.90;99.90
52159;DHT22;38145;53.182;6.284;2022-11-12T09:18:25;7.70;99.90
52159;DHT22;38145;53.182;6.284;2022-11-12T09:20:51;7.70;99.90
52159;DHT22;38145;53.182;6.284;2022-11-12T09:23:17;7.90;99.90
52159;DHT22;38145;53.182;6.284;2022-11-12T09:25:43;7.80;99.90
52159;DHT22;38145;53.182;6.284;2022-11-12T09:28:10;7.70;99.90
52159;DHT22;38145;53.182;6.284;2022-11-12T09:30:37;7.80;99.90
52159;DHT22;38145;53.182;6.284;2022-11-12T09:33:06;7.90;99.90
52159;DHT22;38145;53.182;6.284;2022-11-12T09:35:32;8.10;99.90
52159;DHT22;38145;53.182;6.284;2022-11-12T09:37:58;7.70;99.90
52159;DHT22;38145;53.182;6.284;2022-11-12T09:40:29;7.90;99.90
52159;DHT22;38145;53.182;6.284;2022-11-12T09:42:57;7.90;99.90
52159;DHT22;38145;53.182;6.284;2022-11-12T09:45:28;7.70;99.90
52159;DHT22;38145;53.182;6.284;2022-11-12T09:47:56;7.70;99.90
52159;DHT22;38145;53.182;6.284;2022-11-12T09:50:24;7.90;99.90
52159;DHT22;38145;53.182;6.284;2022-11-12T09:52:52;7.70;99.90
52159;DHT22;38145;53.182;6.284;2022-11-12T09:55:23;7.70;99.90
52159;DHT22;38145;53.182;6.284;2022-11-12T09:57:50;7.50;99.90
52159;DHT22;38145;53.182;6.284;2022-11-12T10:00:18;7.70;99.90
52159;DHT22;38145;53.182;6.284;2022-11-12T10:05:24;7.90;99.90
52159;DHT22;38145;53.182;6.284;2022-11-12T10:07:57;7.70;99.90
52159;DHT22;38145;53.182;6.284;2022-11-12T10:10:35;7.90;99.90
52159;DHT22;38145;53.182;6.284;2022-11-12T10:13:20;7.50;99.90
52159;DHT22;38145;53.182;6.284;2022-11-12T10:18:45;7.50;99.90
52159;DHT22;38145;53.182;6.284;2022-11-12T10:23:42;7.70;99.90
52159;DHT22;38145;53.182;6.284;2022-11-12T10:26:11;7.90;99.90
52159;DHT22;38145;53.182;6.284;2022-11-12T10:28:42;7.90;99.90
52159;DHT22;38145;53.182;6.284;2022-11-12T10:31:12;7.90;99.90
52159;DHT22;38145;53.182;6.284;2022-11-12T10:33:39;7.60;99.90
52159;DHT22;38145;53.182;6.284;2022-11-12T10:36:11;7.60;99.90
52159;DHT22;38145;53.182;6.284;2022-11-12T10:38:38;7.50;99.90
52159;DHT22;38145;53.182;6.284;2022-11-12T10:41:20;7.60;99.90
52159;DHT22;38145;53.182;6.284;2022-11-12T10:43:57;7.80;99.90
52159;DHT22;38145;53.182;6.284;2022-11-12T10:46:28;8.00;99.90
52159;DHT22;38145;53.182;6.284;2022-11-12T10:48:57;7.80;99.90
52159;DHT22;38145;53.182;6.284;2022-11-12T10:51:25;8.00;99.90
52159;DHT22;38145;53.182;6.284;2022-11-12T10:53:52;7.60;99.90
52159;DHT22;38145;53.182;6.284;2022-11-12T10:56:22;7.70;99.90
52159;DHT22;38145;53.182;6.284;2022-11-12T10:59:07;8.00;99.90
52159;DHT22;38145;53.182;6.284;2022-11-12T11:01:34;8.10;99.90
52159;DHT22;38145;53.182;6.284;2022-11-12T11:04:00;7.80;99.90
52159;DHT22;38145;53.182;6.284;2022-11-12T11:06:26;7.60;99.90
52159;DHT22;38145;53.182;6.284;2022-11-12T11:09:07;7.70;99.90
52159;DHT22;38145;53.182;6.284;2022-11-12T11:11:33;7.70;99.90
52159;DHT22;38145;53.182;6.284;2022-11-12T11:14:30;7.70;99.90
52159;DHT22;38145;53.182;6.284;2022-11-12T11:16:52;7.80;99.90
52159;DHT22;38145;53.182;6.284;2022-11-12T11:19:18;7.70;99.90
52159;DHT22;38145;53.182;6.284;2022-11-12T11:34:29;8.30;99.90
52159;DHT22;38145;53.182;6.284;2022-11-12T11:37:00;8.00;99.90
52159;DHT22;38145;53.182;6.284;2022-11-12T11:42:04;8.30;99.90
52159;DHT22;38145;53.182;6.284;2022-11-12T11:44:42;7.90;99.90
52159;DHT22;38145;53.182;6.284;2022-11-12T11:47:16;8.10;99.90
52159;DHT22;38145;53.182;6.284;2022-11-12T11:49:48;8.00;99.90
52159;DHT22;38145;53.182;6.284;2022-11-12T11:52:23;8.50;99.90
52159;DHT22;38145;53.182;6.284;2022-11-12T11:55:00;8.40;99.90
52159;DHT22;38145;53.182;6.284;2022-11-12T11:57:34;8.20;99.90
52159;DHT22;38145;53.182;6.284;2022-11-12T12:00:21;8.40;99.90
52159;DHT22;38145;53.182;6.284;2022-11-12T12:08:04;8.40;99.90
52159;DHT22;38145;53.182;6.284;2022-11-12T12:10:39;8.00;99.90
52159;DHT22;38145;53.182;6.284;2022-11-12T12:18:20;8.30;99.90
52159;DHT22;38145;53.182;6.284;2022-11-12T12:20:57;8.20;99.90
52159;DHT22;38145;53.182;6.284;2022-11-12T12:23:32;8.20;99.90
52159;DHT22;38145;53.182;6.284;2022-11-12T12:26:00;8.40;99.90
52159;DHT22;38145;53.182;6.284;2022-11-12T12:28:32;8.70;99.90
52159;DHT22;38145;53.182;6.284;2022-11-12T12:31:03;8.70;99.90
52159;DHT22;38145;53.182;6.284;2022-11-12T12:35:58;8.80;99.90
52159;DHT22;38145;53.182;6.284;2022-11-12T12:38:28;8.60;99.90
52159;DHT22;38145;53.182;6.284;2022-11-12T12:43:32;8.80;99.90
52159;DHT22;38145;53.182;6.284;2022-11-12T12:45:59;8.50;99.90
52159;DHT22;38145;53.182;6.284;2022-11-12T12:48:26;8.60;99.90
52159;DHT22;38145;53.182;6.284;2022-11-12T12:50:54;8.30;99.90
52159;DHT22;38145;53.182;6.284;2022-11-12T12:55:50;8.70;99.90
52159;DHT22;38145;53.182;6.284;2022-11-12T12:58:17;8.70;99.90
52159;DHT22;38145;53.182;6.284;2022-11-12T13:00:46;8.70;99.90
52159;DHT22;38145;53.182;6.284;2022-11-12T13:03:13;8.80;99.90
52159;DHT22;38145;53.182;6.284;2022-11-12T13:06:21;8.80;99.90
52159;DHT22;38145;53.182;6.284;2022-11-12T13:08:48;8.80;99.90
52159;DHT22;38145;53.182;6.284;2022-11-12T13:16:58;9.00;99.90
52159;DHT22;38145;53.182;6.284;2022-11-12T13:19:33;8.60;99.90
52159;DHT22;38145;53.182;6.284;2022-11-12T13:30:07;9.10;99.90
52159;DHT22;38145;53.182;6.284;2022-11-12T13:32:38;8.80;99.90
52159;DHT22;38145;53.182;6.284;2022-11-12T13:35:18;8.90;99.90
52159;DHT22;38145;53.182;6.284;2022-11-12T13:37:46;8.90;99.90
52159;DHT22;38145;53.182;6.284;2022-11-12T13:40:16;9.10;99.90
52159;DHT22;38145;53.182;6.284;2022-11-12T13:42:43;9.20;99.90
52159;DHT22;38145;53.182;6.284;2022-11-12T13:45:14;9.30;99.90
52159;DHT22;38145;53.182;6.284;2022-11-12T13:47:40;9.10;99.90
52159;DHT22;38145;53.182;6.284;2022-11-12T13:50:07;9.10;99.90
52159;DHT22;38145;53.182;6.284;2022-11-12T13:52:34;9.40;99.90
52159;DHT22;38145;53.182;6.284;2022-11-12T13:55:02;9.10;99.90
52159;DHT22;38145;53.182;6.284;2022-11-12T13:57:29;9.20;99.90
52159;DHT22;38145;53.182;6.284;2022-11-12T14:02:41;9.50;99.90
52159;DHT22;38145;53.182;6.284;2022-11-12T14:05:15;9.60;99.90
52159;DHT22;38145;53.182;6.284;2022-11-12T14:07:45;9.50;99.90
52159;DHT22;38145;53.182;6.284;2022-11-12T14:10:28;9.30;99.90
52159;DHT22;38145;53.182;6.284;2022-11-12T14:13:08;9.60;99.90
52159;DHT22;38145;53.182;6.284;2022-11-12T14:15:52;9.30;99.90
52159;DHT22;38145;53.182;6.284;2022-11-12T14:18:39;9.60;99.90
52159;DHT22;38145;53.182;6.284;2022-11-12T14:21:10;9.30;99.90
52159;DHT22;38145;53.182;6.284;2022-11-12T14:23:38;9.50;99.90
52159;DHT22;38145;53.182;6.284;2022-11-12T14:26:04;9.40;99.90
52159;DHT22;38145;53.182;6.284;2022-11-12T14:28:31;9.50;99.90
52159;DHT22;38145;53.182;6.284;2022-11-12T14:30:58;9.70;99.90
52159;DHT22;38145;53.182;6.284;2022-11-12T14:33:25;9.40;99.90
52159;DHT22;38145;53.182;6.284;2022-11-12T14:35:53;9.40;99.90
52159;DHT22;38145;53.182;6.284;2022-11-12T14:38:20;9.50;99.90
52159;DHT22;38145;53.182;6.284;2022-11-12T14:40:49;9.50;99.90
52159;DHT22;38145;53.182;6.284;2022-11-12T14:45:47;9.40;99.90
52159;DHT22;38145;53.182;6.284;2022-11-12T14:48:14;9.40;99.90
52159;DHT22;38145;53.182;6.284;2022-11-12T14:50:41;9.70;99.90
52159;DHT22;38145;53.182;6.284;2022-11-12T14:53:13;9.60;99.90
52159;DHT22;38145;53.182;6.284;2022-11-12T14:55:40;9.40;99.90
52159;DHT22;38145;53.182;6.284;2022-11-12T14:58:11;9.70;99.90
52159;DHT22;38145;53.182;6.284;2022-11-12T15:00:41;9.50;99.90
52159;DHT22;38145;53.182;6.284;2022-11-12T15:03:10;9.70;99.90
52159;DHT22;38145;53.182;6.284;2022-11-12T15:05:51;9.50;99.90
52159;DHT22;38145;53.182;6.284;2022-11-12T15:08:27;9.60;99.90
52159;DHT22;38145;53.182;6.284;2022-11-12T15:10:53;9.50;99.90
52159;DHT22;38145;53.182;6.284;2022-11-12T15:13:20;9.40;99.90
52159;DHT22;38145;53.182;6.284;2022-11-12T15:15:55;9.10;99.90
52159;DHT22;38145;53.182;6.284;2022-11-12T15:18:25;9.20;99.90
52159;DHT22;38145;53.182;6.284;2022-11-12T15:21:08;9.40;99.90
52159;DHT22;38145;53.182;6.284;2022-11-12T15:23:35;9.20;99.90
52159;DHT22;38145;53.182;6.284;2022-11-12T15:26:02;9.30;99.90
52159;DHT22;38145;53.182;6.284;2022-11-12T15:28:28;9.20;99.90
52159;DHT22;38145;53.182;6.284;2022-11-12T15:31:01;9.20;99.90
52159;DHT22;38145;53.182;6.284;2022-11-12T15:33:30;8.90;99.90
52159;DHT22;38145;53.182;6.284;2022-11-12T15:35:57;8.80;99.90
52159;DHT22;38145;53.182;6.284;2022-11-12T15:38:25;9.10;99.90
52159;DHT22;38145;53.182;6.284;2022-11-12T15:40:53;8.90;99.90
52159;DHT22;38145;53.182;6.284;2022-11-12T15:43:20;9.00;99.90
52159;DHT22;38145;53.182;6.284;2022-11-12T15:45:49;8.70;99.90
52159;DHT22;38145;53.182;6.284;2022-11-12T15:48:17;8.70;99.90
52159;DHT22;38145;53.182;6.284;2022-11-12T15:50:43;8.40;99.90
52159;DHT22;38145;53.182;6.284;2022-11-12T15:53:10;8.40;99.90
52159;DHT22;38145;53.182;6.284;2022-11-12T15:55:37;8.50;99.90
52159;DHT22;38145;53.182;6.284;2022-11-12T15:58:05;8.20;99.90
52159;DHT22;38145;53.182;6.284;2022-11-12T16:00:32;8.50;99.90
52159;DHT22;38145;53.182;6.284;2022-11-12T16:05:34;8.40;99.90
52159;DHT22;38145;53.182;6.284;2022-11-12T16:08:11;8.20;99.90
52159;DHT22;38145;53.182;6.284;2022-11-12T16:10:38;8.10;99.90
52159;DHT22;38145;53.182;6.284;2022-11-12T16:13:06;8.00;99.90
52159;DHT22;38145;53.182;6.284;2022-11-12T16:15:36;7.90;99.90
52159;DHT22;38145;53.182;6.284;2022-11-12T16:18:02;7.90;99.90
52159;DHT22;38145;53.182;6.284;2022-11-12T16:20:30;7.80;99.90
52159;DHT22;38145;53.182;6.284;2022-11-12T16:22:56;7.90;99.90
52159;DHT22;38145;53.182;6.284;2022-11-12T16:25:27;7.90;99.90
52159;DHT22;38145;53.182;6.284;2022-11-12T16:27:54;7.80;99.90
52159;DHT22;38145;53.182;6.284;2022-11-12T16:30:22;7.60;99.90
52159;DHT22;38145;53.182;6.284;2022-11-12T16:32:48;7.80;99.90
52159;DHT22;38145;53.182;6.284;2022-11-12T16:35:15;7.70;99.90
52159;DHT22;38145;53.182;6.284;2022-11-12T16:37:42;7.60;99.90
52159;DHT22;38145;53.182;6.284;2022-11-12T16:40:11;7.70;99.90
52159;DHT22;38145;53.182;6.284;2022-11-12T16:42:38;7.50;99.90
52159;DHT22;38145;53.182;6.284;2022-11-12T16:45:11;7.70;99.90
52159;DHT22;38145;53.182;6.284;2022-11-12T16:47:41;7.60;99.90
52159;DHT22;38145;53.182;6.284;2022-11-12T16:50:09;7.40;99.90
52159;DHT22;38145;53.182;6.284;2022-11-12T16:52:35;7.30;99.90
52159;DHT22;38145;53.182;6.284;2022-11-12T16:55:02;7.20;99.90